Ext Vistas de Luquillo, Puerto Rico
Current Conditions -  °F | °C
As of 12:53 AM on Sunday 26 Oct 2014 (Local Time) from TJNR Reporting Station
Few Clouds Few Clouds  
Wind Chill: 81°   Ceiling: Unl
Heat Index: 87°   Visibility: 10mi
Dew Point: 75°   Wind: 9mph
Humidity: 82%   Direction: 140°SE
Pressure: 29.91"   Gusts: NA
Location:  18.3744°N, 65.7168°W
Report Text: TJNR 260453Z AUTO 14008KT 10SM FEW023 27/24 A2991 RMK AO2 SLP127 T02720239 $
Loading
Personal Weather Stations






























Interactive Weather Map
Tropical Storm Tracking
New forecast layout! Learn more

10-Day Weather Forecast

Advertisements
Track Severe Weather on mobile